sensor_id;sensor_type;location;lat;lon;timestamp;P1;durP1;ratioP1;P2;durP2;ratioP2
20486;SDS011;10402;49.012;8.370;2024-02-26T00:02:14;423.33;;;405.20;;
20486;SDS011;10402;49.012;8.370;2024-02-26T00:04:40;432.37;;;413.60;;
20486;SDS011;10402;49.012;8.370;2024-02-26T00:07:05;432.97;;;414.83;;
20486;SDS011;10402;49.012;8.370;2024-02-26T00:09:31;447.47;;;428.10;;
20486;SDS011;10402;49.012;8.370;2024-02-26T00:12:00;440.90;;;422.03;;
20486;SDS011;10402;49.012;8.370;2024-02-26T00:14:26;425.90;;;407.83;;
20486;SDS011;10402;49.012;8.370;2024-02-26T00:16:51;438.43;;;419.70;;
20486;SDS011;10402;49.012;8.370;2024-02-26T00:19:17;425.10;;;407.00;;
20486;SDS011;10402;49.012;8.370;2024-02-26T00:21:42;420.87;;;402.90;;
20486;SDS011;10402;49.012;8.370;2024-02-26T00:24:08;413.07;;;395.70;;
20486;SDS011;10402;49.012;8.370;2024-02-26T00:26:34;424.07;;;406.47;;
20486;SDS011;10402;49.012;8.370;2024-02-26T00:28:59;384.20;;;368.40;;
20486;SDS011;10402;49.012;8.370;2024-02-26T00:31:25;375.40;;;359.90;;
20486;SDS011;10402;49.012;8.370;2024-02-26T00:33:50;374.10;;;358.90;;
20486;SDS011;10402;49.012;8.370;2024-02-26T00:36:16;380.53;;;365.07;;
20486;SDS011;10402;49.012;8.370;2024-02-26T00:38:41;386.17;;;370.23;;
20486;SDS011;10402;49.012;8.370;2024-02-26T00:41:09;374.73;;;359.63;;
20486;SDS011;10402;49.012;8.370;2024-02-26T00:43:35;369.53;;;354.57;;
20486;SDS011;10402;49.012;8.370;2024-02-26T00:46:03;376.10;;;360.80;;
20486;SDS011;10402;49.012;8.370;2024-02-26T00:48:28;395.57;;;379.37;;
20486;SDS011;10402;49.012;8.370;2024-02-26T00:50:54;367.33;;;352.77;;
20486;SDS011;10402;49.012;8.370;2024-02-26T00:53:19;378.67;;;363.23;;
20486;SDS011;10402;49.012;8.370;2024-02-26T00:55:45;388.03;;;372.20;;
20486;SDS011;10402;49.012;8.370;2024-02-26T00:58:10;409.20;;;392.00;;
20486;SDS011;10402;49.012;8.370;2024-02-26T01:00:36;429.87;;;411.50;;
20486;SDS011;10402;49.012;8.370;2024-02-26T01:03:02;456.83;;;437.43;;
20486;SDS011;10402;49.012;8.370;2024-02-26T01:05:28;461.17;;;441.07;;
20486;SDS011;10402;49.012;8.370;2024-02-26T01:07:54;463.87;;;443.37;;
20486;SDS011;10402;49.012;8.370;2024-02-26T01:10:19;464.30;;;443.23;;
20486;SDS011;10402;49.012;8.370;2024-02-26T01:12:45;445.83;;;425.37;;
20486;SDS011;10402;49.012;8.370;2024-02-26T01:15:10;414.67;;;396.20;;
20486;SDS011;10402;49.012;8.370;2024-02-26T01:17:36;394.57;;;376.90;;
20486;SDS011;10402;49.012;8.370;2024-02-26T01:20:01;355.90;;;340.30;;
20486;SDS011;10402;49.012;8.370;2024-02-26T01:22:27;330.50;;;316.27;;
20486;SDS011;10402;49.012;8.370;2024-02-26T01:24:53;306.73;;;294.20;;
20486;SDS011;10402;49.012;8.370;2024-02-26T01:27:18;282.93;;;271.77;;
20486;SDS011;10402;49.012;8.370;2024-02-26T01:29:44;264.00;;;253.93;;
20486;SDS011;10402;49.012;8.370;2024-02-26T01:32:10;271.30;;;260.93;;
20486;SDS011;10402;49.012;8.370;2024-02-26T01:34:36;285.30;;;274.40;;
20486;SDS011;10402;49.012;8.370;2024-02-26T01:37:02;255.90;;;246.30;;
20486;SDS011;10402;49.012;8.370;2024-02-26T01:39:27;249.23;;;239.97;;
20486;SDS011;10402;49.012;8.370;2024-02-26T01:41:55;257.00;;;247.63;;
20486;SDS011;10402;49.012;8.370;2024-02-26T01:44:21;242.30;;;233.57;;
20486;SDS011;10402;49.012;8.370;2024-02-26T01:46:46;269.87;;;260.43;;
20486;SDS011;10402;49.012;8.370;2024-02-26T01:49:13;286.73;;;276.63;;
20486;SDS011;10402;49.012;8.370;2024-02-26T01:51:39;317.87;;;306.43;;
20486;SDS011;10402;49.012;8.370;2024-02-26T01:54:07;373.57;;;359.30;;
20486;SDS011;10402;49.012;8.370;2024-02-26T01:56:33;403.30;;;387.63;;
20486;SDS011;10402;49.012;8.370;2024-02-26T01:59:01;466.03;;;446.77;;
20486;SDS011;10402;49.012;8.370;2024-02-26T02:01:27;516.23;;;493.73;;
20486;SDS011;10402;49.012;8.370;2024-02-26T02:03:56;530.90;;;507.00;;
20486;SDS011;10402;49.012;8.370;2024-02-26T02:06:23;540.50;;;515.40;;
20486;SDS011;10402;49.012;8.370;2024-02-26T02:08:49;500.07;;;477.30;;
20486;SDS011;10402;49.012;8.370;2024-02-26T02:11:14;501.23;;;477.87;;
20486;SDS011;10402;49.012;8.370;2024-02-26T02:13:40;469.87;;;447.87;;
20486;SDS011;10402;49.012;8.370;2024-02-26T02:16:06;472.83;;;450.83;;
20486;SDS011;10402;49.012;8.370;2024-02-26T02:18:32;487.17;;;463.63;;
20486;SDS011;10402;49.012;8.370;2024-02-26T02:20:59;455.30;;;433.70;;
20486;SDS011;10402;49.012;8.370;2024-02-26T02:23:25;478.13;;;454.97;;
20486;SDS011;10402;49.012;8.370;2024-02-26T02:25:51;469.43;;;447.33;;
20486;SDS011;10402;49.012;8.370;2024-02-26T02:28:17;433.83;;;413.47;;
20486;SDS011;10402;49.012;8.370;2024-02-26T02:30:43;403.17;;;385.03;;
20486;SDS011;10402;49.012;8.370;2024-02-26T02:33:08;379.73;;;362.43;;
20486;SDS011;10402;49.012;8.370;2024-02-26T02:35:34;412.77;;;394.20;;
20486;SDS011;10402;49.012;8.370;2024-02-26T02:38:00;301.83;;;290.13;;
20486;SDS011;10402;49.012;8.370;2024-02-26T02:40:25;161.23;;;155.77;;
20486;SDS011;10402;49.012;8.370;2024-02-26T02:42:51;158.97;;;153.60;;
20486;SDS011;10402;49.012;8.370;2024-02-26T02:45:16;173.03;;;167.13;;
20486;SDS011;10402;49.012;8.370;2024-02-26T02:47:42;238.80;;;230.27;;
20486;SDS011;10402;49.012;8.370;2024-02-26T02:50:07;183.87;;;176.87;;
20486;SDS011;10402;49.012;8.370;2024-02-26T02:52:33;115.57;;;111.47;;
20486;SDS011;10402;49.012;8.370;2024-02-26T02:54:59;116.93;;;112.90;;
20486;SDS011;10402;49.012;8.370;2024-02-26T02:57:24;150.77;;;145.60;;
20486;SDS011;10402;49.012;8.370;2024-02-26T02:59:50;161.87;;;156.27;;
20486;SDS011;10402;49.012;8.370;2024-02-26T03:02:15;149.80;;;144.50;;
20486;SDS011;10402;49.012;8.370;2024-02-26T03:04:41;154.10;;;148.33;;
20486;SDS011;10402;49.012;8.370;2024-02-26T03:07:06;177.57;;;170.80;;
20486;SDS011;10402;49.012;8.370;2024-02-26T03:09:32;204.20;;;196.43;;
20486;SDS011;10402;49.012;8.370;2024-02-26T03:11:57;211.67;;;203.97;;
20486;SDS011;10402;49.012;8.370;2024-02-26T03:14:23;243.67;;;234.33;;
20486;SDS011;10402;49.012;8.370;2024-02-26T03:16:48;267.63;;;257.30;;
20486;SDS011;10402;49.012;8.370;2024-02-26T03:19:14;299.17;;;287.57;;
20486;SDS011;10402;49.012;8.370;2024-02-26T03:21:43;338.90;;;325.60;;
20486;SDS011;10402;49.012;8.370;2024-02-26T03:24:08;347.77;;;333.60;;
20486;SDS011;10402;49.012;8.370;2024-02-26T03:26:35;359.47;;;343.77;;
20486;SDS011;10402;49.012;8.370;2024-02-26T03:29:01;348.43;;;333.10;;
20486;SDS011;10402;49.012;8.370;2024-02-26T03:31:27;332.10;;;317.57;;
20486;SDS011;10402;49.012;8.370;2024-02-26T03:33:53;339.13;;;324.00;;
20486;SDS011;10402;49.012;8.370;2024-02-26T03:36:19;319.47;;;305.57;;
20486;SDS011;10402;49.012;8.370;2024-02-26T03:38:46;310.57;;;297.23;;
20486;SDS011;10402;49.012;8.370;2024-02-26T03:41:12;338.03;;;323.60;;
20486;SDS011;10402;49.012;8.370;2024-02-26T03:43:37;365.60;;;349.90;;
20486;SDS011;10402;49.012;8.370;2024-02-26T03:46:03;391.67;;;374.23;;
20486;SDS011;10402;49.012;8.370;2024-02-26T03:48:28;390.90;;;373.70;;
20486;SDS011;10402;49.012;8.370;2024-02-26T03:50:54;386.50;;;369.63;;
20486;SDS011;10402;49.012;8.370;2024-02-26T03:53:19;432.20;;;412.70;;
20486;SDS011;10402;49.012;8.370;2024-02-26T03:55:45;429.60;;;410.50;;
20486;SDS011;10402;49.012;8.370;2024-02-26T03:58:12;435.40;;;415.77;;
20486;SDS011;10402;49.012;8.370;2024-02-26T04:00:37;472.77;;;450.40;;
20486;SDS011;10402;49.012;8.370;2024-02-26T04:03:03;454.03;;;432.63;;
20486;SDS011;10402;49.012;8.370;2024-02-26T04:05:28;483.43;;;460.30;;
20486;SDS011;10402;49.012;8.370;2024-02-26T04:07:54;452.67;;;431.33;;
20486;SDS011;10402;49.012;8.370;2024-02-26T04:10:19;475.83;;;452.93;;
20486;SDS011;10402;49.012;8.370;2024-02-26T04:12:45;483.40;;;460.67;;
20486;SDS011;10402;49.012;8.370;2024-02-26T04:15:11;507.37;;;483.30;;
20486;SDS011;10402;49.012;8.370;2024-02-26T04:17:37;501.50;;;477.20;;
20486;SDS011;10402;49.012;8.370;2024-02-26T04:20:04;526.73;;;501.07;;
20486;SDS011;10402;49.012;8.370;2024-02-26T04:25:07;528.60;;;503.07;;
20486;SDS011;10402;49.012;8.370;2024-02-26T04:27:33;551.00;;;523.90;;
20486;SDS011;10402;49.012;8.370;2024-02-26T04:29:59;529.60;;;503.87;;
20486;SDS011;10402;49.012;8.370;2024-02-26T04:32:24;522.97;;;497.77;;
20486;SDS011;10402;49.012;8.370;2024-02-26T04:34:51;531.13;;;505.77;;
20486;SDS011;10402;49.012;8.370;2024-02-26T04:37:16;555.47;;;528.17;;
20486;SDS011;10402;49.012;8.370;2024-02-26T04:39:42;539.80;;;513.30;;
20486;SDS011;10402;49.012;8.370;2024-02-26T04:42:07;554.77;;;526.80;;
20486;SDS011;10402;49.012;8.370;2024-02-26T04:44:33;575.80;;;546.73;;
20486;SDS011;10402;49.012;8.370;2024-02-26T04:46:59;586.67;;;556.83;;
20486;SDS011;10402;49.012;8.370;2024-02-26T04:49:26;578.57;;;548.90;;
20486;SDS011;10402;49.012;8.370;2024-02-26T04:51:52;579.17;;;549.97;;
20486;SDS011;10402;49.012;8.370;2024-02-26T04:54:18;580.93;;;551.30;;
20486;SDS011;10402;49.012;8.370;2024-02-26T04:56:43;577.40;;;547.63;;
20486;SDS011;10402;49.012;8.370;2024-02-26T04:59:09;593.70;;;563.43;;
20486;SDS011;10402;49.012;8.370;2024-02-26T05:01:34;592.03;;;561.30;;
20486;SDS011;10402;49.012;8.370;2024-02-26T05:04:01;598.63;;;568.03;;
20486;SDS011;10402;49.012;8.370;2024-02-26T05:06:28;609.70;;;577.30;;
20486;SDS011;10402;49.012;8.370;2024-02-26T05:08:53;596.77;;;566.23;;
20486;SDS011;10402;49.012;8.370;2024-02-26T05:11:19;606.63;;;575.10;;
20486;SDS011;10402;49.012;8.370;2024-02-26T05:13:45;604.43;;;572.93;;
20486;SDS011;10402;49.012;8.370;2024-02-26T05:16:10;615.70;;;582.93;;
20486;SDS011;10402;49.012;8.370;2024-02-26T05:18:36;617.20;;;584.90;;
20486;SDS011;10402;49.012;8.370;2024-02-26T05:21:01;601.27;;;569.17;;
20486;SDS011;10402;49.012;8.370;2024-02-26T05:23:28;612.70;;;579.57;;
20486;SDS011;10402;49.012;8.370;2024-02-26T05:25:54;634.90;;;600.43;;
20486;SDS011;10402;49.012;8.370;2024-02-26T05:28:19;624.40;;;590.97;;
20486;SDS011;10402;49.012;8.370;2024-02-26T05:30:45;643.90;;;608.83;;
20486;SDS011;10402;49.012;8.370;2024-02-26T05:33:11;629.43;;;594.70;;
20486;SDS011;10402;49.012;8.370;2024-02-26T05:35:37;621.60;;;588.37;;
20486;SDS011;10402;49.012;8.370;2024-02-26T05:38:03;629.70;;;595.27;;
20486;SDS011;10402;49.012;8.370;2024-02-26T05:40:28;630.60;;;596.53;;
20486;SDS011;10402;49.012;8.370;2024-02-26T05:42:55;634.20;;;600.00;;
20486;SDS011;10402;49.012;8.370;2024-02-26T05:45:20;644.20;;;608.93;;
20486;SDS011;10402;49.012;8.370;2024-02-26T05:47:46;642.57;;;607.67;;
20486;SDS011;10402;49.012;8.370;2024-02-26T05:50:12;617.20;;;584.40;;
20486;SDS011;10402;49.012;8.370;2024-02-26T05:52:38;616.40;;;583.50;;
20486;SDS011;10402;49.012;8.370;2024-02-26T05:55:04;584.87;;;554.17;;
20486;SDS011;10402;49.012;8.370;2024-02-26T05:57:30;615.07;;;582.50;;
20486;SDS011;10402;49.012;8.370;2024-02-26T05:59:56;596.53;;;565.07;;
20486;SDS011;10402;49.012;8.370;2024-02-26T06:02:25;592.60;;;561.67;;
20486;SDS011;10402;49.012;8.370;2024-02-26T06:04:51;597.63;;;566.37;;
20486;SDS011;10402;49.012;8.370;2024-02-26T06:07:16;611.97;;;579.43;;
20486;SDS011;10402;49.012;8.370;2024-02-26T06:09:42;600.63;;;569.23;;
20486;SDS011;10402;49.012;8.370;2024-02-26T06:12:07;556.33;;;527.73;;
20486;SDS011;10402;49.012;8.370;2024-02-26T06:14:33;567.30;;;538.17;;
20486;SDS011;10402;49.012;8.370;2024-02-26T06:16:58;574.00;;;543.93;;
20486;SDS011;10402;49.012;8.370;2024-02-26T06:19:24;601.87;;;569.93;;
20486;SDS011;10402;49.012;8.370;2024-02-26T06:21:49;603.77;;;571.97;;
20486;SDS011;10402;49.012;8.370;2024-02-26T06:24:16;598.13;;;567.03;;
20486;SDS011;10402;49.012;8.370;2024-02-26T06:26:41;617.90;;;585.30;;
20486;SDS011;10402;49.012;8.370;2024-02-26T06:29:07;609.30;;;577.70;;
20486;SDS011;10402;49.012;8.370;2024-02-26T06:31:32;610.00;;;577.40;;
20486;SDS011;10402;49.012;8.370;2024-02-26T06:33:58;616.60;;;583.97;;
20486;SDS011;10402;49.012;8.370;2024-02-26T06:36:23;686.17;;;648.27;;
20486;SDS011;10402;49.012;8.370;2024-02-26T06:38:49;671.70;;;634.90;;
20486;SDS011;10402;49.012;8.370;2024-02-26T06:41:14;676.77;;;639.50;;
20486;SDS011;10402;49.012;8.370;2024-02-26T06:43:40;672.53;;;635.47;;
20486;SDS011;10402;49.012;8.370;2024-02-26T06:46:06;705.67;;;665.87;;
20486;SDS011;10402;49.012;8.370;2024-02-26T06:48:32;716.03;;;676.23;;
20486;SDS011;10402;49.012;8.370;2024-02-26T06:50:57;705.63;;;665.67;;
20486;SDS011;10402;49.012;8.370;2024-02-26T06:53:23;698.30;;;658.83;;
20486;SDS011;10402;49.012;8.370;2024-02-26T06:55:48;711.33;;;670.73;;
20486;SDS011;10402;49.012;8.370;2024-02-26T06:58:15;699.70;;;660.67;;
20486;SDS011;10402;49.012;8.370;2024-02-26T07:00:40;672.10;;;634.13;;
20486;SDS011;10402;49.012;8.370;2024-02-26T07:03:06;688.50;;;649.10;;
20486;SDS011;10402;49.012;8.370;2024-02-26T07:05:32;680.67;;;641.87;;
20486;SDS011;10402;49.012;8.370;2024-02-26T07:07:57;627.23;;;593.20;;
20486;SDS011;10402;49.012;8.370;2024-02-26T07:10:23;577.27;;;547.27;;
20486;SDS011;10402;49.012;8.370;2024-02-26T07:12:48;555.03;;;526.30;;
20486;SDS011;10402;49.012;8.370;2024-02-26T07:15:14;510.83;;;485.70;;
20486;SDS011;10402;49.012;8.370;2024-02-26T07:17:39;465.17;;;442.83;;
20486;SDS011;10402;49.012;8.370;2024-02-26T07:20:12;428.30;;;408.67;;
20486;SDS011;10402;49.012;8.370;2024-02-26T07:22:37;411.57;;;393.27;;
20486;SDS011;10402;49.012;8.370;2024-02-26T07:25:03;400.10;;;382.83;;
20486;SDS011;10402;49.012;8.370;2024-02-26T07:27:29;364.43;;;349.07;;
20486;SDS011;10402;49.012;8.370;2024-02-26T07:29:54;355.60;;;340.50;;
20486;SDS011;10402;49.012;8.370;2024-02-26T07:32:20;347.33;;;332.83;;
20486;SDS011;10402;49.012;8.370;2024-02-26T07:34:45;331.33;;;317.60;;
20486;SDS011;10402;49.012;8.370;2024-02-26T07:37:11;315.00;;;301.87;;
20486;SDS011;10402;49.012;8.370;2024-02-26T07:39:37;310.03;;;297.20;;
20486;SDS011;10402;49.012;8.370;2024-02-26T07:42:02;290.27;;;278.50;;
20486;SDS011;10402;49.012;8.370;2024-02-26T07:44:28;287.87;;;276.00;;
20486;SDS011;10402;49.012;8.370;2024-02-26T07:46:54;253.20;;;242.57;;
20486;SDS011;10402;49.012;8.370;2024-02-26T07:49:19;258.60;;;247.23;;
20486;SDS011;10402;49.012;8.370;2024-02-26T07:51:45;236.63;;;226.03;;
20486;SDS011;10402;49.012;8.370;2024-02-26T07:54:10;233.97;;;223.37;;
20486;SDS011;10402;49.012;8.370;2024-02-26T07:56:36;219.07;;;208.77;;
20486;SDS011;10402;49.012;8.370;2024-02-26T07:59:01;207.73;;;197.70;;
20486;SDS011;10402;49.012;8.370;2024-02-26T08:01:27;191.53;;;182.23;;
20486;SDS011;10402;49.012;8.370;2024-02-26T08:03:53;181.70;;;172.77;;
20486;SDS011;10402;49.012;8.370;2024-02-26T08:06:19;176.33;;;168.00;;
20486;SDS011;10402;49.012;8.370;2024-02-26T08:08:44;183.33;;;174.80;;
20486;SDS011;10402;49.012;8.370;2024-02-26T08:11:10;171.73;;;163.70;;
20486;SDS011;10402;49.012;8.370;2024-02-26T08:13:35;161.63;;;154.20;;
20486;SDS011;10402;49.012;8.370;2024-02-26T08:16:01;181.43;;;173.40;;
20486;SDS011;10402;49.012;8.370;2024-02-26T08:18:26;184.47;;;176.37;;
20486;SDS011;10402;49.012;8.370;2024-02-26T08:20:52;171.63;;;164.17;;
20486;SDS011;10402;49.012;8.370;2024-02-26T08:23:18;189.10;;;180.93;;
20486;SDS011;10402;49.012;8.370;2024-02-26T08:25:43;188.63;;;180.60;;
20486;SDS011;10402;49.012;8.370;2024-02-26T08:28:09;184.23;;;176.30;;
20486;SDS011;10402;49.012;8.370;2024-02-26T08:30:38;189.50;;;181.63;;
20486;SDS011;10402;49.012;8.370;2024-02-26T08:33:04;204.73;;;196.33;;
20486;SDS011;10402;49.012;8.370;2024-02-26T08:35:29;186.67;;;178.80;;
20486;SDS011;10402;49.012;8.370;2024-02-26T08:37:55;209.30;;;200.90;;
20486;SDS011;10402;49.012;8.370;2024-02-26T08:40:20;201.17;;;193.10;;
20486;SDS011;10402;49.012;8.370;2024-02-26T08:42:46;219.63;;;210.83;;
20486;SDS011;10402;49.012;8.370;2024-02-26T08:45:11;238.27;;;228.50;;
20486;SDS011;10402;49.012;8.370;2024-02-26T08:47:37;230.83;;;221.53;;
20486;SDS011;10402;49.012;8.370;2024-02-26T08:50:03;243.13;;;233.23;;
20486;SDS011;10402;49.012;8.370;2024-02-26T08:52:29;284.00;;;271.97;;
20486;SDS011;10402;49.012;8.370;2024-02-26T08:54:55;296.07;;;283.47;;
20486;SDS011;10402;49.012;8.370;2024-02-26T08:57:21;309.03;;;295.57;;
20486;SDS011;10402;49.012;8.370;2024-02-26T08:59:47;308.27;;;294.87;;
20486;SDS011;10402;49.012;8.370;2024-02-26T09:02:12;330.63;;;316.00;;
20486;SDS011;10402;49.012;8.370;2024-02-26T09:04:38;347.77;;;332.17;;
20486;SDS011;10402;49.012;8.370;2024-02-26T09:07:04;357.20;;;341.10;;
20486;SDS011;10402;49.012;8.370;2024-02-26T09:09:29;356.27;;;340.40;;
20486;SDS011;10402;49.012;8.370;2024-02-26T09:11:55;350.27;;;335.07;;
20486;SDS011;10402;49.012;8.370;2024-02-26T09:14:21;359.83;;;343.87;;
20486;SDS011;10402;49.012;8.370;2024-02-26T09:16:47;346.07;;;331.30;;
20486;SDS011;10402;49.012;8.370;2024-02-26T09:19:13;334.00;;;319.37;;
20486;SDS011;10402;49.012;8.370;2024-02-26T09:21:42;321.07;;;307.40;;
20486;SDS011;10402;49.012;8.370;2024-02-26T09:24:09;300.43;;;287.63;;
20486;SDS011;10402;49.012;8.370;2024-02-26T09:26:35;288.20;;;275.50;;
20486;SDS011;10402;49.012;8.370;2024-02-26T09:29:01;301.93;;;288.30;;
20486;SDS011;10402;49.012;8.370;2024-02-26T09:31:27;314.63;;;300.80;;
20486;SDS011;10402;49.012;8.370;2024-02-26T09:33:52;307.50;;;293.97;;
20486;SDS011;10402;49.012;8.370;2024-02-26T09:36:18;339.67;;;325.03;;
20486;SDS011;10402;49.012;8.370;2024-02-26T09:38:43;339.73;;;325.27;;
20486;SDS011;10402;49.012;8.370;2024-02-26T09:41:12;341.90;;;327.13;;
20486;SDS011;10402;49.012;8.370;2024-02-26T09:43:40;336.70;;;322.70;;
20486;SDS011;10402;49.012;8.370;2024-02-26T09:46:10;334.10;;;320.57;;
20486;SDS011;10402;49.012;8.370;2024-02-26T09:48:35;335.47;;;321.93;;
20486;SDS011;10402;49.012;8.370;2024-02-26T09:51:02;306.63;;;294.53;;
20486;SDS011;10402;49.012;8.370;2024-02-26T09:53:29;287.67;;;276.33;;
20486;SDS011;10402;49.012;8.370;2024-02-26T09:55:57;297.13;;;285.47;;
20486;SDS011;10402;49.012;8.370;2024-02-26T09:58:27;268.57;;;258.17;;
20486;SDS011;10402;49.012;8.370;2024-02-26T10:00:55;271.03;;;260.20;;
20486;SDS011;10402;49.012;8.370;2024-02-26T10:03:28;275.40;;;264.70;;
20486;SDS011;10402;49.012;8.370;2024-02-26T10:05:59;289.90;;;278.60;;
20486;SDS011;10402;49.012;8.370;2024-02-26T10:08:27;285.77;;;274.30;;
20486;SDS011;10402;49.012;8.370;2024-02-26T10:10:54;298.43;;;286.07;;
20486;SDS011;10402;49.012;8.370;2024-02-26T10:13:20;323.17;;;309.53;;
20486;SDS011;10402;49.012;8.370;2024-02-26T10:15:46;344.80;;;330.07;;
20486;SDS011;10402;49.012;8.370;2024-02-26T10:18:11;358.10;;;342.50;;
20486;SDS011;10402;49.012;8.370;2024-02-26T10:20:37;375.20;;;358.40;;
20486;SDS011;10402;49.012;8.370;2024-02-26T10:23:03;379.50;;;362.60;;
20486;SDS011;10402;49.012;8.370;2024-02-26T10:25:29;409.13;;;390.77;;
20486;SDS011;10402;49.012;8.370;2024-02-26T10:27:58;452.10;;;431.63;;
20486;SDS011;10402;49.012;8.370;2024-02-26T10:30:27;459.43;;;438.80;;
20486;SDS011;10402;49.012;8.370;2024-02-26T10:32:53;486.77;;;464.87;;
20486;SDS011;10402;49.012;8.370;2024-02-26T10:35:19;486.70;;;464.63;;
20486;SDS011;10402;49.012;8.370;2024-02-26T10:37:45;487.03;;;465.10;;
20486;SDS011;10402;49.012;8.370;2024-02-26T10:40:11;492.40;;;469.70;;
20486;SDS011;10402;49.012;8.370;2024-02-26T10:42:39;472.70;;;450.30;;
20486;SDS011;10402;49.012;8.370;2024-02-26T10:45:06;441.83;;;420.80;;
20486;SDS011;10402;49.012;8.370;2024-02-26T10:47:34;441.60;;;420.00;;
20486;SDS011;10402;49.012;8.370;2024-02-26T10:50:03;439.73;;;418.17;;
20486;SDS011;10402;49.012;8.370;2024-02-26T10:52:31;436.83;;;414.93;;
20486;SDS011;10402;49.012;8.370;2024-02-26T10:55:01;423.20;;;402.30;;
20486;SDS011;10402;49.012;8.370;2024-02-26T10:57:46;428.60;;;406.93;;
20486;SDS011;10402;49.012;8.370;2024-02-26T11:00:13;415.83;;;394.80;;
20486;SDS011;10402;49.012;8.370;2024-02-26T11:02:40;423.80;;;402.70;;
20486;SDS011;10402;49.012;8.370;2024-02-26T11:05:07;422.53;;;402.50;;
20486;SDS011;10402;49.012;8.370;2024-02-26T11:07:34;420.70;;;400.30;;
20486;SDS011;10402;49.012;8.370;2024-02-26T11:10:02;426.47;;;406.23;;
20486;SDS011;10402;49.012;8.370;2024-02-26T11:12:29;408.23;;;388.70;;
20486;SDS011;10402;49.012;8.370;2024-02-26T11:14:56;403.10;;;384.13;;
20486;SDS011;10402;49.012;8.370;2024-02-26T11:17:25;434.47;;;414.23;;
20486;SDS011;10402;49.012;8.370;2024-02-26T11:19:55;422.53;;;402.67;;
20486;SDS011;10402;49.012;8.370;2024-02-26T11:22:21;442.20;;;421.43;;
20486;SDS011;10402;49.012;8.370;2024-02-26T11:24:47;463.30;;;441.03;;
20486;SDS011;10402;49.012;8.370;2024-02-26T11:27:13;473.60;;;450.93;;
20486;SDS011;10402;49.012;8.370;2024-02-26T11:29:47;503.60;;;478.70;;
20486;SDS011;10402;49.012;8.370;2024-02-26T11:32:17;520.60;;;494.43;;
20486;SDS011;10402;49.012;8.370;2024-02-26T11:34:43;514.90;;;488.20;;
20486;SDS011;10402;49.012;8.370;2024-02-26T11:37:16;498.23;;;472.50;;
20486;SDS011;10402;49.012;8.370;2024-02-26T11:39:42;492.33;;;466.90;;
20486;SDS011;10402;49.012;8.370;2024-02-26T11:42:10;475.20;;;450.40;;
20486;SDS011;10402;49.012;8.370;2024-02-26T11:44:39;461.67;;;438.60;;
20486;SDS011;10402;49.012;8.370;2024-02-26T11:47:10;478.87;;;454.33;;
20486;SDS011;10402;49.012;8.370;2024-02-26T11:49:53;498.63;;;473.03;;
20486;SDS011;10402;49.012;8.370;2024-02-26T11:52:19;506.03;;;479.60;;
20486;SDS011;10402;49.012;8.370;2024-02-26T11:54:46;529.03;;;501.07;;
20486;SDS011;10402;49.012;8.370;2024-02-26T11:57:24;538.20;;;509.33;;
20486;SDS011;10402;49.012;8.370;2024-02-26T12:05:14;639.87;;;604.07;;
20486;SDS011;10402;49.012;8.370;2024-02-26T12:07:54;664.47;;;626.80;;
20486;SDS011;10402;49.012;8.370;2024-02-26T12:10:27;677.50;;;638.97;;
20486;SDS011;10402;49.012;8.370;2024-02-26T12:13:00;665.93;;;629.03;;
20486;SDS011;10402;49.012;8.370;2024-02-26T12:15:38;688.50;;;649.63;;
20486;SDS011;10402;49.012;8.370;2024-02-26T12:18:05;672.33;;;634.97;;
20486;SDS011;10402;49.012;8.370;2024-02-26T12:20:33;662.13;;;625.03;;
20486;SDS011;10402;49.012;8.370;2024-02-26T12:23:00;674.27;;;636.03;;
20486;SDS011;10402;49.012;8.370;2024-02-26T12:25:28;666.07;;;628.40;;
20486;SDS011;10402;49.012;8.370;2024-02-26T12:27:55;665.07;;;628.07;;
20486;SDS011;10402;49.012;8.370;2024-02-26T12:30:21;670.07;;;632.70;;
20486;SDS011;10402;49.012;8.370;2024-02-26T12:32:51;659.53;;;622.17;;
20486;SDS011;10402;49.012;8.370;2024-02-26T12:35:21;651.00;;;615.30;;
20486;SDS011;10402;49.012;8.370;2024-02-26T12:37:47;644.93;;;609.70;;
20486;SDS011;10402;49.012;8.370;2024-02-26T12:40:13;626.13;;;591.73;;
20486;SDS011;10402;49.012;8.370;2024-02-26T12:42:39;600.57;;;568.07;;
20486;SDS011;10402;49.012;8.370;2024-02-26T12:45:09;605.97;;;573.93;;
20486;SDS011;10402;49.012;8.370;2024-02-26T12:47:37;570.67;;;541.07;;
20486;SDS011;10402;49.012;8.370;2024-02-26T12:50:03;565.27;;;535.77;;
20486;SDS011;10402;49.012;8.370;2024-02-26T12:52:31;545.90;;;517.57;;
20486;SDS011;10402;49.012;8.370;2024-02-26T12:54:57;538.77;;;511.63;;
20486;SDS011;10402;49.012;8.370;2024-02-26T12:57:23;529.13;;;502.67;;
20486;SDS011;10402;49.012;8.370;2024-02-26T12:59:49;493.23;;;468.90;;
20486;SDS011;10402;49.012;8.370;2024-02-26T13:02:15;577.50;;;547.90;;
20486;SDS011;10402;49.012;8.370;2024-02-26T13:04:41;556.80;;;528.20;;
20486;SDS011;10402;49.012;8.370;2024-02-26T13:07:07;549.97;;;521.33;;
20486;SDS011;10402;49.012;8.370;2024-02-26T13:09:33;507.67;;;481.43;;
20486;SDS011;10402;49.012;8.370;2024-02-26T13:12:00;500.10;;;475.07;;
20486;SDS011;10402;49.012;8.370;2024-02-26T13:14:29;459.90;;;437.17;;
20486;SDS011;10402;49.012;8.370;2024-02-26T13:16:59;467.90;;;444.60;;
20486;SDS011;10402;49.012;8.370;2024-02-26T13:19:26;463.23;;;440.37;;
20486;SDS011;10402;49.012;8.370;2024-02-26T13:21:53;444.63;;;423.13;;
20486;SDS011;10402;49.012;8.370;2024-02-26T13:24:19;446.53;;;424.97;;
20486;SDS011;10402;49.012;8.370;2024-02-26T13:26:45;436.37;;;415.97;;
20486;SDS011;10402;49.012;8.370;2024-02-26T13:29:17;402.90;;;384.30;;
20486;SDS011;10402;49.012;8.370;2024-02-26T13:31:43;391.03;;;373.33;;
20486;SDS011;10402;49.012;8.370;2024-02-26T13:34:09;382.60;;;366.13;;
20486;SDS011;10402;49.012;8.370;2024-02-26T13:36:34;402.07;;;384.83;;
20486;SDS011;10402;49.012;8.370;2024-02-26T13:39:00;410.07;;;392.30;;
20486;SDS011;10402;49.012;8.370;2024-02-26T13:41:26;435.13;;;416.10;;
20486;SDS011;10402;49.012;8.370;2024-02-26T13:43:52;444.03;;;424.73;;
20486;SDS011;10402;49.012;8.370;2024-02-26T13:46:18;447.87;;;428.37;;
20486;SDS011;10402;49.012;8.370;2024-02-26T13:48:44;464.03;;;443.73;;
20486;SDS011;10402;49.012;8.370;2024-02-26T13:51:10;459.73;;;439.17;;
20486;SDS011;10402;49.012;8.370;2024-02-26T13:53:35;457.80;;;437.47;;
20486;SDS011;10402;49.012;8.370;2024-02-26T13:56:01;461.40;;;440.77;;
20486;SDS011;10402;49.012;8.370;2024-02-26T13:58:29;443.30;;;423.23;;
20486;SDS011;10402;49.012;8.370;2024-02-26T14:00:54;457.67;;;436.90;;